createdAt,value
2019-03-15T00:01:36.545Z,99.90
2019-03-15T00:04:04.723Z,99.90
2019-03-15T00:06:32.896Z,99.90
2019-03-15T00:09:01.129Z,99.90
2019-03-15T00:11:29.438Z,99.90
2019-03-15T00:13:57.820Z,99.90
2019-03-15T00:16:26.042Z,99.90
2019-03-15T00:18:54.272Z,99.90
2019-03-15T00:21:22.463Z,99.90
2019-03-15T00:23:50.799Z,99.90
2019-03-15T00:26:19.135Z,99.90
2019-03-15T00:28:47.510Z,99.90
2019-03-15T00:31:16.007Z,99.90
2019-03-15T00:33:44.248Z,99.90
2019-03-15T00:36:12.436Z,99.90
2019-03-15T00:38:42.360Z,99.90
2019-03-15T00:41:11.041Z,99.90
2019-03-15T00:43:39.436Z,99.90
2019-03-15T00:46:07.827Z,99.90
2019-03-15T00:48:36.074Z,99.90
2019-03-15T00:51:04.124Z,99.90
2019-03-15T00:53:32.368Z,99.90
2019-03-15T00:56:00.589Z,99.90
2019-03-15T00:58:28.864Z,99.90
2019-03-15T01:00:57.259Z,99.90
2019-03-15T01:03:25.516Z,99.90
2019-03-15T01:05:53.676Z,99.90
2019-03-15T01:08:21.923Z,99.90
2019-03-15T01:10:50.018Z,99.90
2019-03-15T01:13:18.294Z,99.90
2019-03-15T01:15:46.735Z,99.90
2019-03-15T01:18:14.849Z,99.90
2019-03-15T01:20:43.050Z,99.90
2019-03-15T01:23:11.399Z,99.90
2019-03-15T01:25:39.590Z,99.90
2019-03-15T01:28:08.254Z,99.90
2019-03-15T01:30:36.490Z,99.90
2019-03-15T01:33:04.707Z,99.90
2019-03-15T01:35:33.982Z,99.90
2019-03-15T01:38:02.451Z,99.90
2019-03-15T01:40:32.351Z,99.90
2019-03-15T01:43:00.593Z,99.90
2019-03-15T01:45:29.031Z,99.90
2019-03-15T01:47:57.226Z,99.90
2019-03-15T01:50:25.403Z,99.90
2019-03-15T01:52:54.766Z,99.90
2019-03-15T01:55:22.652Z,99.90
2019-03-15T01:57:50.935Z,99.90
2019-03-15T02:00:19.193Z,99.90
2019-03-15T02:02:48.439Z,99.90
2019-03-15T02:05:16.683Z,99.90
2019-03-15T02:07:45.149Z,99.90
2019-03-15T02:10:13.362Z,99.90
2019-03-15T02:12:41.624Z,99.90
2019-03-15T02:15:09.962Z,99.90
2019-03-15T02:17:38.405Z,99.90
2019-03-15T02:20:06.855Z,99.90
2019-03-15T02:22:54.122Z,99.90
2019-03-15T02:25:22.382Z,99.90
2019-03-15T02:27:50.531Z,99.90
2019-03-15T02:30:18.787Z,99.90
2019-03-15T02:32:46.979Z,99.90
2019-03-15T02:35:15.317Z,99.90
2019-03-15T02:37:43.704Z,99.90
2019-03-15T02:40:12.854Z,99.90
2019-03-15T02:42:42.448Z,99.90
2019-03-15T02:45:10.858Z,99.90
2019-03-15T02:47:39.105Z,99.90
2019-03-15T02:50:07.669Z,99.90
2019-03-15T02:52:35.976Z,99.90
2019-03-15T02:55:04.223Z,99.90
2019-03-15T02:57:32.413Z,99.90
2019-03-15T03:00:00.905Z,99.90
2019-03-15T03:02:29.258Z,99.90
2019-03-15T03:04:57.644Z,99.90
2019-03-15T03:07:26.149Z,99.90
2019-03-15T03:09:54.394Z,99.90
2019-03-15T03:12:22.661Z,99.90
2019-03-15T03:14:50.755Z,99.90
2019-03-15T03:17:18.910Z,99.90
2019-03-15T03:19:47.080Z,99.90
2019-03-15T03:22:15.220Z,99.90
2019-03-15T03:24:43.546Z,99.90
2019-03-15T03:27:11.919Z,99.90
2019-03-15T03:29:40.259Z,99.90
2019-03-15T03:32:08.456Z,99.90
2019-03-15T03:34:36.751Z,99.90
2019-03-15T03:37:05.087Z,99.90
2019-03-15T03:39:34.303Z,99.90
2019-03-15T03:42:02.792Z,99.90
2019-03-15T03:44:32.685Z,99.90
2019-03-15T03:47:00.876Z,99.90
2019-03-15T03:49:29.107Z,99.90
2019-03-15T03:51:57.465Z,99.90
2019-03-15T03:54:25.939Z,99.90
2019-03-15T03:56:54.099Z,99.90
2019-03-15T03:59:22.473Z,99.90
2019-03-15T04:01:50.834Z,99.90
2019-03-15T04:04:18.921Z,99.90
2019-03-15T04:06:47.325Z,99.90
2019-03-15T04:09:15.608Z,99.90
2019-03-15T04:11:54.684Z,99.90
2019-03-15T04:14:13.961Z,99.90
2019-03-15T04:16:42.227Z,99.90
2019-03-15T04:19:10.401Z,99.90
2019-03-15T04:21:38.715Z,99.90
2019-03-15T04:24:06.971Z,99.90
2019-03-15T04:26:35.237Z,99.90
2019-03-15T04:29:03.651Z,99.90
2019-03-15T04:31:32.001Z,99.90
2019-03-15T04:34:00.195Z,99.90
2019-03-15T04:36:28.508Z,99.90
2019-03-15T04:38:56.660Z,99.90
2019-03-15T04:41:24.677Z,99.90
2019-03-15T04:43:52.906Z,99.90
2019-03-15T04:46:21.227Z,99.90
2019-03-15T04:48:49.526Z,99.90
2019-03-15T04:51:17.797Z,99.90
2019-03-15T04:53:45.990Z,99.90
2019-03-15T04:56:14.235Z,99.90
2019-03-15T04:58:42.506Z,99.90
2019-03-15T05:01:10.573Z,99.90
2019-03-15T05:03:38.856Z,99.90
2019-03-15T05:06:07.400Z,99.90
2019-03-15T05:08:35.553Z,99.90
2019-03-15T05:11:03.779Z,99.90
2019-03-15T05:13:32.023Z,99.90
2019-03-15T05:16:00.337Z,99.90
2019-03-15T05:18:28.498Z,99.90
2019-03-15T05:20:56.739Z,99.90
2019-03-15T05:23:25.174Z,99.90
2019-03-15T05:25:53.448Z,99.90
2019-03-15T05:28:22.283Z,99.90
2019-03-15T05:30:50.500Z,99.90
2019-03-15T05:33:18.802Z,99.90
2019-03-15T05:35:47.113Z,99.90
2019-03-15T05:38:15.219Z,99.90
2019-03-15T05:40:43.414Z,99.90
2019-03-15T05:43:11.697Z,99.90
2019-03-15T05:45:39.994Z,99.90
2019-03-15T05:48:09.323Z,99.90
2019-03-15T05:50:40.548Z,99.90
2019-03-15T05:53:07.320Z,99.90
2019-03-15T05:55:35.508Z,99.90
2019-03-15T05:58:03.747Z,99.90
2019-03-15T06:00:31.970Z,99.90
2019-03-15T06:03:00.233Z,99.90
2019-03-15T06:05:28.567Z,99.90
2019-03-15T06:07:56.796Z,99.90
2019-03-15T06:10:24.896Z,99.90
2019-03-15T06:12:53.212Z,99.90
2019-03-15T06:15:21.403Z,99.90
2019-03-15T06:17:49.678Z,99.90
2019-03-15T06:20:18.052Z,99.90
2019-03-15T06:22:46.132Z,99.90
2019-03-15T06:25:14.583Z,99.90
2019-03-15T06:27:42.877Z,99.90
2019-03-15T06:30:11.166Z,99.90
2019-03-15T06:32:39.331Z,99.90
2019-03-15T06:35:07.784Z,99.90
2019-03-15T06:37:36.003Z,99.90
2019-03-15T06:40:04.636Z,99.90
2019-03-15T06:42:32.961Z,99.90
2019-03-15T06:45:01.223Z,99.90
2019-03-15T06:47:30.053Z,99.90
2019-03-15T06:50:00.304Z,99.90
2019-03-15T06:52:28.550Z,99.30
2019-03-15T06:54:56.697Z,97.40
2019-03-15T06:57:25.037Z,94.40
2019-03-15T06:59:52.885Z,92.80
2019-03-15T07:02:21.124Z,91.10
2019-03-15T07:04:49.524Z,90.50
2019-03-15T07:07:17.828Z,90.00
2019-03-15T07:09:46.032Z,86.20
2019-03-15T07:12:14.224Z,86.90
2019-03-15T07:14:42.478Z,82.60
2019-03-15T07:17:10.868Z,82.30
2019-03-15T07:19:39.096Z,79.90
2019-03-15T07:22:07.297Z,78.40
2019-03-15T07:24:35.701Z,77.40
2019-03-15T07:27:12.955Z,75.50
2019-03-15T07:29:34.197Z,74.50
2019-03-15T07:32:02.350Z,72.30
2019-03-15T07:34:30.683Z,72.40
2019-03-15T07:36:58.803Z,72.20
2019-03-15T07:39:26.967Z,69.90
2019-03-15T07:41:55.398Z,69.50
2019-03-15T07:44:23.628Z,67.70
2019-03-15T07:46:51.895Z,68.30
2019-03-15T07:49:20.019Z,69.00
2019-03-15T07:51:49.270Z,67.90
2019-03-15T07:54:17.381Z,67.60
2019-03-15T07:56:45.696Z,66.70
2019-03-15T07:59:14.026Z,64.70
2019-03-15T08:01:42.270Z,64.40
2019-03-15T08:04:16.675Z,64.00
2019-03-15T08:06:40.794Z,62.80
2019-03-15T08:09:09.253Z,61.60
2019-03-15T08:11:37.602Z,62.00
2019-03-15T08:14:05.903Z,61.20
2019-03-15T08:16:34.627Z,60.80
2019-03-15T08:19:05.026Z,59.10
2019-03-15T08:21:33.209Z,60.30
2019-03-15T08:24:01.475Z,60.50
2019-03-15T08:26:30.353Z,59.90
2019-03-15T08:28:58.627Z,59.70
2019-03-15T08:31:26.909Z,59.80
2019-03-15T08:33:55.148Z,59.00
2019-03-15T08:36:22.968Z,59.40
2019-03-15T08:38:51.335Z,59.10
2019-03-15T08:41:19.346Z,58.90
2019-03-15T08:43:47.499Z,59.20
2019-03-15T08:46:15.735Z,58.50
2019-03-15T08:48:44.072Z,59.30
2019-03-15T08:51:12.253Z,58.90
2019-03-15T08:53:40.618Z,59.80
2019-03-15T08:56:08.936Z,59.70
2019-03-15T08:58:37.008Z,60.00
2019-03-15T09:01:05.185Z,60.00
2019-03-15T09:03:34.478Z,59.70
2019-03-15T09:06:02.964Z,60.40
2019-03-15T09:08:31.139Z,60.80
2019-03-15T09:10:59.449Z,60.80
2019-03-15T09:13:27.694Z,60.70
2019-03-15T09:15:55.863Z,62.10
2019-03-15T09:18:23.971Z,61.30
2019-03-15T09:20:52.216Z,60.60
2019-03-15T09:23:20.268Z,59.40
2019-03-15T09:25:48.509Z,59.70
2019-03-15T09:28:16.768Z,59.90
2019-03-15T09:30:45.017Z,58.90
2019-03-15T09:33:13.230Z,60.20
2019-03-15T09:35:41.566Z,61.30
2019-03-15T09:38:10.674Z,60.80
2019-03-15T09:40:39.000Z,60.30
2019-03-15T09:43:07.206Z,60.10
2019-03-15T09:45:35.108Z,61.40
2019-03-15T09:48:03.451Z,62.40
2019-03-15T09:50:40.029Z,62.50
2019-03-15T09:53:01.752Z,62.50
2019-03-15T09:55:33.138Z,62.30
2019-03-15T09:58:01.163Z,62.30
2019-03-15T10:00:29.423Z,64.00
2019-03-15T10:02:57.723Z,63.60
2019-03-15T10:05:25.916Z,62.50
2019-03-15T10:07:54.160Z,62.50
2019-03-15T10:10:22.404Z,62.50
2019-03-15T10:12:50.740Z,61.80
2019-03-15T10:15:19.024Z,62.00
2019-03-15T10:17:47.337Z,61.40
2019-03-15T10:20:15.633Z,61.60
2019-03-15T10:22:43.930Z,60.60
2019-03-15T10:25:12.289Z,60.10
2019-03-15T10:27:40.359Z,60.90
2019-03-15T10:30:10.515Z,60.70
2019-03-15T10:32:38.759Z,60.50
2019-03-15T10:35:07.229Z,60.20
2019-03-15T10:37:35.512Z,59.90
2019-03-15T10:40:04.906Z,61.50
2019-03-15T10:42:33.088Z,60.00
2019-03-15T10:45:01.207Z,59.60
2019-03-15T10:47:29.498Z,58.70
2019-03-15T10:49:57.752Z,58.50
2019-03-15T10:52:26.037Z,58.60
2019-03-15T10:54:54.397Z,58.50
2019-03-15T10:57:22.658Z,58.90
2019-03-15T10:59:50.936Z,58.80
2019-03-15T11:02:19.433Z,57.70
2019-03-15T11:04:47.762Z,57.20
2019-03-15T11:07:15.853Z,57.60
2019-03-15T11:09:44.284Z,57.20
2019-03-15T11:12:12.610Z,58.70
2019-03-15T11:14:40.766Z,58.50
2019-03-15T11:17:09.148Z,58.40
2019-03-15T11:19:37.546Z,58.70
2019-03-15T11:22:05.827Z,58.40
2019-03-15T11:24:34.160Z,59.30
2019-03-15T11:27:02.356Z,59.00
2019-03-15T11:29:30.764Z,58.60
2019-03-15T11:31:58.854Z,58.60
2019-03-15T11:34:27.158Z,57.50
2019-03-15T11:36:58.484Z,59.00
2019-03-15T11:39:25.559Z,58.30
2019-03-15T11:41:53.639Z,57.80
2019-03-15T11:44:21.819Z,57.40
2019-03-15T11:46:50.273Z,57.20
2019-03-15T11:49:18.694Z,57.90
2019-03-15T11:51:46.851Z,58.30
2019-03-15T11:54:15.087Z,57.30
2019-03-15T11:56:45.108Z,57.30
2019-03-15T11:59:13.343Z,56.80
2019-03-15T12:01:41.734Z,57.10
2019-03-15T12:04:09.972Z,57.10
2019-03-15T12:06:38.153Z,57.40
2019-03-15T12:09:07.339Z,56.00
2019-03-15T12:11:35.514Z,57.00
2019-03-15T12:14:03.907Z,56.50
2019-03-15T12:16:32.250Z,57.70
2019-03-15T12:19:00.551Z,58.20
2019-03-15T12:21:28.715Z,57.70
2019-03-15T12:23:56.994Z,58.10
2019-03-15T12:26:25.173Z,57.70
2019-03-15T12:28:53.562Z,57.30
2019-03-15T12:31:21.904Z,57.30
2019-03-15T12:33:50.131Z,57.00
2019-03-15T12:36:18.274Z,57.90
2019-03-15T12:38:46.684Z,58.00
2019-03-15T12:41:14.877Z,59.00
2019-03-15T12:43:43.103Z,59.10
2019-03-15T12:46:11.600Z,58.60
2019-03-15T12:48:39.849Z,58.90
2019-03-15T12:51:08.037Z,58.50
2019-03-15T12:53:36.285Z,58.00
2019-03-15T12:56:04.697Z,58.50
2019-03-15T12:58:32.983Z,57.50
2019-03-15T13:01:01.298Z,58.10
2019-03-15T13:03:29.625Z,58.90
2019-03-15T13:05:57.904Z,59.50
2019-03-15T13:08:26.261Z,59.50
2019-03-15T13:10:54.435Z,59.70
2019-03-15T13:13:22.607Z,59.90
2019-03-15T13:15:51.123Z,60.50
2019-03-15T13:18:19.318Z,60.50
2019-03-15T13:20:47.804Z,60.60
2019-03-15T13:23:16.084Z,60.40
2019-03-15T13:25:44.292Z,60.60
2019-03-15T13:28:12.540Z,60.80
2019-03-15T13:30:40.860Z,61.70
2019-03-15T13:33:19.708Z,61.80
2019-03-15T13:35:39.030Z,62.10
2019-03-15T13:38:07.185Z,62.50
2019-03-15T13:40:35.222Z,63.50
2019-03-15T13:43:03.447Z,63.00
2019-03-15T13:45:33.081Z,64.30
2019-03-15T13:48:01.367Z,64.70
2019-03-15T13:50:29.508Z,64.40
2019-03-15T13:52:57.795Z,63.70
2019-03-15T13:55:26.050Z,63.80
2019-03-15T13:57:54.117Z,66.60
2019-03-15T14:00:22.645Z,66.60
2019-03-15T14:02:50.882Z,66.10
2019-03-15T14:05:19.157Z,65.10
2019-03-15T14:07:47.387Z,65.50
2019-03-15T14:10:15.608Z,66.10
2019-03-15T14:12:43.772Z,67.10
2019-03-15T14:15:12.040Z,67.40
2019-03-15T14:17:40.234Z,67.30
2019-03-15T14:20:09.444Z,66.20
2019-03-15T14:22:37.762Z,66.50
2019-03-15T14:25:06.530Z,66.80
2019-03-15T14:27:37.843Z,67.00
2019-03-15T14:30:05.182Z,67.60
2019-03-15T14:32:33.384Z,67.00
2019-03-15T14:35:01.642Z,67.60
2019-03-15T14:37:29.874Z,68.30
2019-03-15T14:39:58.475Z,68.40
2019-03-15T14:42:26.799Z,69.50
2019-03-15T14:44:54.929Z,70.90
2019-03-15T14:47:23.138Z,70.50
2019-03-15T14:49:51.298Z,71.50
2019-03-15T14:52:19.427Z,70.40
2019-03-15T14:54:47.745Z,69.40
2019-03-15T14:57:15.735Z,68.00
2019-03-15T14:59:45.618Z,69.20
2019-03-15T15:02:13.993Z,70.00
2019-03-15T15:04:42.401Z,71.90
2019-03-15T15:07:10.737Z,73.20
2019-03-15T15:09:39.035Z,75.10
2019-03-15T15:12:07.349Z,77.10
2019-03-15T15:14:35.671Z,75.40
2019-03-15T15:17:04.938Z,74.70
2019-03-15T15:19:33.267Z,75.70
2019-03-15T15:22:01.612Z,75.10
2019-03-15T15:24:29.838Z,74.30
2019-03-15T15:26:58.090Z,74.50
2019-03-15T15:29:26.417Z,75.70
2019-03-15T15:31:54.684Z,75.30
2019-03-15T15:34:23.123Z,75.10
2019-03-15T15:36:51.462Z,74.70
2019-03-15T15:39:19.492Z,77.70
2019-03-15T15:41:47.866Z,78.60
2019-03-15T15:44:16.087Z,80.20
2019-03-15T15:46:44.214Z,79.40
2019-03-15T15:49:12.189Z,81.40
2019-03-15T15:51:40.574Z,82.60
2019-03-15T15:54:08.861Z,82.30
2019-03-15T15:56:37.213Z,82.10
2019-03-15T15:59:05.539Z,80.10
2019-03-15T16:01:35.709Z,80.60
2019-03-15T16:04:03.964Z,80.50
2019-03-15T16:06:32.312Z,82.00
2019-03-15T16:09:00.851Z,82.70
2019-03-15T16:11:29.090Z,81.50
2019-03-15T16:13:57.278Z,81.10
2019-03-15T16:16:25.546Z,83.10
2019-03-15T16:18:53.883Z,83.00
2019-03-15T16:21:22.343Z,82.50
2019-03-15T16:23:50.617Z,84.30
2019-03-15T16:26:18.975Z,84.20
2019-03-15T16:28:47.198Z,84.90
2019-03-15T16:31:15.510Z,86.00
2019-03-15T16:33:43.782Z,84.80
2019-03-15T16:36:12.196Z,85.30
2019-03-15T16:38:40.430Z,85.40
2019-03-15T16:41:08.524Z,87.60
2019-03-15T16:43:36.847Z,88.40
2019-03-15T16:46:05.092Z,89.70
2019-03-15T16:48:33.249Z,92.40
2019-03-15T16:51:01.658Z,91.00
2019-03-15T16:53:30.016Z,90.30
2019-03-15T16:55:58.239Z,91.40
2019-03-15T16:58:26.602Z,92.30
2019-03-15T17:00:54.739Z,92.50
2019-03-15T17:03:22.981Z,93.10
2019-03-15T17:05:51.322Z,92.10
2019-03-15T17:08:19.533Z,92.20
2019-03-15T17:10:47.615Z,92.00
2019-03-15T17:13:15.935Z,92.30
2019-03-15T17:15:44.168Z,93.40
2019-03-15T17:18:12.454Z,93.30
2019-03-15T17:20:40.760Z,93.20
2019-03-15T17:23:09.025Z,95.60
2019-03-15T17:25:37.184Z,95.10
2019-03-15T17:28:05.496Z,95.40
2019-03-15T17:30:33.758Z,96.10
2019-03-15T17:33:02.024Z,95.60
2019-03-15T17:35:30.446Z,96.30
2019-03-15T17:37:58.521Z,97.00
2019-03-15T17:40:26.940Z,97.50
2019-03-15T17:42:55.129Z,97.90
2019-03-15T17:45:23.470Z,98.10
2019-03-15T17:47:51.582Z,98.50
2019-03-15T17:50:19.805Z,98.70
2019-03-15T17:52:48.041Z,99.10
2019-03-15T17:55:16.690Z,99.40
2019-03-15T17:57:45.900Z,99.50
2019-03-15T18:00:34.746Z,99.50
2019-03-15T18:03:03.497Z,99.50
2019-03-15T18:05:31.787Z,99.90
2019-03-15T18:07:59.858Z,99.10
2019-03-15T18:10:28.103Z,99.30
2019-03-15T18:12:56.307Z,99.90
2019-03-15T18:15:24.417Z,99.50
2019-03-15T18:17:52.780Z,99.60
2019-03-15T18:20:20.927Z,99.90
2019-03-15T18:22:49.100Z,99.90
2019-03-15T18:25:17.442Z,99.60
2019-03-15T18:27:45.971Z,99.40
2019-03-15T18:30:14.246Z,99.30
2019-03-15T18:32:42.258Z,99.40
2019-03-15T18:35:10.596Z,99.30
2019-03-15T18:37:38.427Z,99.30
2019-03-15T18:40:08.543Z,99.50
2019-03-15T18:42:36.748Z,99.40
2019-03-15T18:45:06.613Z,99.80
2019-03-15T18:47:34.906Z,99.90
2019-03-15T18:50:03.297Z,99.90
2019-03-15T18:52:31.487Z,99.90
2019-03-15T18:54:59.681Z,99.90
2019-03-15T18:57:27.872Z,99.90
2019-03-15T18:59:56.121Z,99.90
2019-03-15T19:02:24.324Z,99.90
2019-03-15T19:04:52.459Z,99.90
2019-03-15T19:07:20.637Z,99.90
2019-03-15T19:09:48.836Z,99.90
2019-03-15T19:12:16.964Z,99.90
2019-03-15T19:14:45.130Z,99.90
2019-03-15T19:17:13.245Z,99.90
2019-03-15T19:19:41.495Z,99.90
2019-03-15T19:22:09.724Z,99.90
2019-03-15T19:24:38.069Z,99.90
2019-03-15T19:27:06.322Z,99.90
2019-03-15T19:29:34.604Z,99.90
2019-03-15T19:32:02.719Z,99.90
2019-03-15T19:34:30.843Z,99.90
2019-03-15T19:37:00.966Z,99.90
2019-03-15T19:39:48.093Z,99.90
2019-03-15T19:42:16.167Z,99.90
2019-03-15T19:44:44.438Z,99.90
2019-03-15T19:47:12.638Z,99.90
2019-03-15T19:49:40.872Z,99.90
2019-03-15T19:52:09.140Z,99.90
2019-03-15T19:54:37.390Z,99.90
2019-03-15T19:57:05.604Z,99.90
2019-03-15T19:59:33.926Z,99.90
2019-03-15T20:02:02.018Z,99.90
2019-03-15T20:04:30.413Z,99.90
2019-03-15T20:06:58.717Z,99.90
2019-03-15T20:09:26.936Z,99.90
2019-03-15T20:11:54.970Z,99.90
2019-03-15T20:14:23.236Z,99.90
2019-03-15T20:16:51.433Z,99.90
2019-03-15T20:19:19.561Z,99.90
2019-03-15T20:21:47.850Z,99.90
2019-03-15T20:24:16.178Z,99.90
2019-03-15T20:26:44.383Z,99.90
2019-03-15T20:29:12.609Z,99.90
2019-03-15T20:31:40.679Z,99.90
2019-03-15T20:34:09.015Z,99.90
2019-03-15T20:36:37.162Z,99.90
2019-03-15T20:39:06.947Z,99.90
2019-03-15T20:41:34.967Z,99.90
2019-03-15T20:44:03.279Z,99.90
2019-03-15T20:46:35.920Z,99.90
2019-03-15T20:49:02.684Z,99.90
2019-03-15T20:51:30.859Z,99.90
2019-03-15T20:53:58.728Z,99.90
2019-03-15T20:56:26.966Z,99.90
2019-03-15T20:58:55.183Z,99.90
2019-03-15T21:01:23.670Z,99.90
2019-03-15T21:03:56.278Z,99.90
2019-03-15T21:06:21.724Z,99.90
2019-03-15T21:08:49.964Z,99.90
2019-03-15T21:11:18.111Z,99.90
2019-03-15T21:13:46.357Z,99.90
2019-03-15T21:16:14.488Z,99.90
2019-03-15T21:18:42.618Z,99.90
2019-03-15T21:21:10.761Z,99.90
2019-03-15T21:23:39.127Z,99.90
2019-03-15T21:26:07.413Z,99.90
2019-03-15T21:28:35.585Z,99.90
2019-03-15T21:31:03.882Z,99.90
2019-03-15T21:33:32.038Z,99.90
2019-03-15T21:36:00.113Z,99.90
2019-03-15T21:38:28.505Z,99.90
2019-03-15T21:40:56.979Z,99.90
2019-03-15T21:43:25.276Z,99.90
2019-03-15T21:45:53.632Z,99.90
2019-03-15T21:48:21.679Z,99.90
2019-03-15T21:50:49.895Z,99.90
2019-03-15T21:53:18.093Z,99.90
2019-03-15T21:55:46.284Z,99.90
2019-03-15T21:58:14.636Z,99.90
2019-03-15T22:00:42.942Z,99.90
2019-03-15T22:03:11.238Z,99.90
2019-03-15T22:05:39.335Z,99.90
2019-03-15T22:08:07.658Z,99.90
2019-03-15T22:10:35.864Z,99.90
2019-03-15T22:13:04.112Z,99.90
2019-03-15T22:15:32.342Z,99.90
2019-03-15T22:18:00.686Z,99.90
2019-03-15T22:20:28.965Z,99.90
2019-03-15T22:22:57.275Z,99.90
2019-03-15T22:25:25.519Z,99.90
2019-03-15T22:27:53.909Z,99.90
2019-03-15T22:30:22.419Z,99.90
2019-03-15T22:32:50.665Z,99.90
2019-03-15T22:35:18.928Z,99.90
2019-03-15T22:37:47.139Z,99.90
2019-03-15T22:40:15.711Z,99.90
2019-03-15T22:42:43.949Z,99.90
2019-03-15T22:45:12.172Z,99.90
2019-03-15T22:47:40.410Z,99.90
2019-03-15T22:50:08.992Z,99.90
2019-03-15T22:52:37.059Z,99.90
2019-03-15T22:55:05.657Z,99.90
2019-03-15T22:57:33.838Z,99.90
2019-03-15T23:00:02.155Z,99.90
2019-03-15T23:02:30.307Z,99.90
2019-03-15T23:04:58.684Z,99.90
2019-03-15T23:07:26.964Z,99.90
2019-03-15T23:09:55.197Z,99.90
2019-03-15T23:12:23.502Z,99.90
2019-03-15T23:14:51.802Z,99.90
2019-03-15T23:17:20.018Z,99.90
2019-03-15T23:19:48.188Z,99.90
2019-03-15T23:22:16.430Z,99.90
2019-03-15T23:24:44.443Z,99.90
2019-03-15T23:27:12.809Z,99.90
2019-03-15T23:29:41.136Z,99.90
2019-03-15T23:32:09.295Z,99.90
2019-03-15T23:34:37.664Z,99.90
2019-03-15T23:37:05.985Z,99.90
2019-03-15T23:39:33.948Z,99.90
2019-03-15T23:42:02.061Z,99.90
2019-03-15T23:44:30.540Z,99.90
2019-03-15T23:46:58.935Z,99.90
2019-03-15T23:49:27.298Z,99.90
2019-03-15T23:51:55.476Z,99.90
2019-03-15T23:54:23.664Z,99.90
2019-03-15T23:56:51.943Z,99.90
2019-03-15T23:59:20.520Z,99.90
